Time;durP1;ratioP1;P1;durP2;ratioP2;P2;SDS_P1;SDS_P2;PMS_P1;PMS_P2;Temp;Humidity;BMP_temperature;BMP_pressure;BME280_temperature;BME280_humidity;BME280_pressure;Samples;Min_cycle;Max_cycle;Signal;HPM_P1;HPM_P2
2022/03/18 00:02:25;;;;;;;20.95;9.18;;;;;;;3.60;78.50;103792.44;5036476;28;20033;-60
2022/03/18 00:04:51;;;;;;;16.65;8.15;;;;;;;3.55;78.53;103787.78;5036172;28;20585;-60
2022/03/18 00:07:20;;;;;;;13.75;8.52;;;;;;;3.55;78.26;103792.94;5036268;28;20063;-60
2022/03/18 00:09:45;;;;;;;13.77;8.38;;;;;;;3.50;78.97;103800.41;5036168;28;20056;-60
2022/03/18 00:12:11;;;;;;;16.75;8.55;;;;;;;3.50;78.56;103801.31;5036064;28;20432;-60
2022/03/18 00:14:40;;;;;;;20.35;9.77;;;;;;;3.36;78.50;103809.91;5036153;28;20091;-60
2022/03/18 00:17:08;;;;;;;18.80;9.15;;;;;;;3.21;79.10;103802.88;5036050;28;20041;-61
2022/03/18 00:19:36;;;;;;;18.83;9.45;;;;;;;3.08;79.33;103812.44;5036032;28;20073;-60
2022/03/18 00:22:03;;;;;;;18.27;9.48;;;;;;;2.96;79.67;103805.53;5036009;28;20029;-61
2022/03/18 00:24:31;;;;;;;16.98;9.95;;;;;;;2.95;80.30;103815.00;5035648;28;20033;-60
2022/03/18 00:26:57;;;;;;;18.98;9.25;;;;;;;3.03;80.44;103816.41;5036193;28;20037;-60
2022/03/18 00:29:22;;;;;;;18.20;9.52;;;;;;;3.04;80.14;103814.72;5036132;28;20033;-61
2022/03/18 00:31:48;;;;;;;16.65;9.07;;;;;;;3.00;79.37;103805.84;5035774;28;20084;-60
2022/03/18 00:34:13;;;;;;;16.85;9.45;;;;;;;3.03;79.36;103806.06;5035740;28;20037;-61
2022/03/18 00:36:38;;;;;;;20.95;9.60;;;;;;;3.01;79.22;103801.56;5035180;28;20137;-60
2022/03/18 00:39:05;;;;;;;23.70;9.57;;;;;;;3.00;79.12;103805.84;5035448;28;20428;-61
2022/03/18 00:41:31;;;;;;;21.95;9.80;;;;;;;2.93;79.45;103806.28;5035469;28;20033;-60
2022/03/18 00:43:56;;;;;;;17.77;9.90;;;;;;;2.93;80.02;103803.69;5035488;28;20041;-60
2022/03/18 00:46:23;;;;;;;18.60;10.32;;;;;;;2.87;80.03;103811.03;5035479;28;20029;-60
2022/03/18 00:54:17;;;;;;;19.45;9.57;;;;;;;2.84;79.37;103821.16;5035759;28;20102;-61
2022/03/18 00:56:42;;;;;;;24.40;10.43;;;;;;;2.83;79.87;103832.31;5035439;28;20029;-61
2022/03/18 00:59:07;;;;;;;16.85;9.32;;;;;;;2.75;79.42;103837.00;5034945;28;20403;-60
2022/03/18 01:01:33;;;;;;;19.30;9.73;;;;;;;2.69;80.51;103835.66;5035266;28;20105;-60
2022/03/18 01:03:58;;;;;;;18.30;9.80;;;;;;;2.64;80.17;103832.78;5034879;28;20482;-62
2022/03/18 01:06:24;;;;;;;16.52;9.27;;;;;;;2.71;80.38;103841.84;5035174;28;20041;-60
2022/03/18 01:08:49;;;;;;;16.80;9.35;;;;;;;2.76;80.43;103845.66;5035543;28;20067;-60
2022/03/18 01:11:14;;;;;;;20.40;10.85;;;;;;;2.66;79.94;103843.22;5035062;28;20075;-60
2022/03/18 01:13:40;;;;;;;17.90;9.05;;;;;;;2.47;79.84;103851.41;5035339;28;20033;-60
2022/03/18 01:16:05;;;;;;;18.17;9.05;;;;;;;2.42;80.65;103851.09;5035227;28;20115;-61
2022/03/18 01:18:30;;;;;;;19.23;10.00;;;;;;;2.41;81.08;103851.94;5035230;28;20102;-60
2022/03/18 01:20:56;;;;;;;19.52;9.68;;;;;;;2.45;80.88;103847.84;5035103;28;20455;-60
2022/03/18 01:23:21;;;;;;;20.05;10.20;;;;;;;2.42;81.11;103853.69;5035003;28;20036;-60
2022/03/18 01:25:46;;;;;;;18.88;8.45;;;;;;;2.45;80.63;103853.91;5035115;28;20052;-60
2022/03/18 01:28:13;;;;;;;14.65;9.13;;;;;;;2.46;80.34;103854.78;5034933;28;20032;-60
2022/03/18 01:30:39;;;;;;;19.85;9.55;;;;;;;2.42;80.45;103852.81;5034710;28;20033;-60
2022/03/18 01:33:04;;;;;;;15.13;8.73;;;;;;;2.28;80.74;103843.19;5034975;28;20036;-60
2022/03/18 01:35:30;;;;;;;17.40;8.93;;;;;;;2.24;81.25;103844.72;5034746;28;20372;-60
2022/03/18 01:37:55;;;;;;;19.92;9.73;;;;;;;2.27;81.40;103844.00;5034552;28;20124;-60
2022/03/18 01:40:21;;;;;;;15.75;8.88;;;;;;;2.25;81.45;103840.44;5034569;28;20045;-60
2022/03/18 01:42:47;;;;;;;17.33;9.20;;;;;;;2.20;81.73;103850.44;5034576;28;20025;-61
2022/03/18 01:45:13;;;;;;;14.43;8.52;;;;;;;2.21;81.60;103844.50;5035088;28;20060;-60
2022/03/18 01:47:42;;;;;;;17.80;8.80;;;;;;;2.19;82.01;103842.59;5034851;28;20108;-60
2022/03/18 01:50:13;;;;;;;18.42;9.18;;;;;;;2.13;82.28;103848.22;5034509;28;20061;-60
2022/03/18 01:52:39;;;;;;;15.45;8.63;;;;;;;2.15;81.82;103858.66;5034553;28;20030;-60
2022/03/18 01:55:05;;;;;;;19.00;8.98;;;;;;;2.15;81.89;103856.06;5034613;28;20368;-60
2022/03/18 01:57:30;;;;;;;17.85;8.98;;;;;;;2.12;81.98;103854.19;5034750;28;20384;-60
2022/03/18 01:59:56;;;;;;;14.00;8.18;;;;;;;2.15;81.82;103859.56;5034831;28;20060;-60
2022/03/18 02:02:22;;;;;;;16.23;9.30;;;;;;;2.09;81.63;103843.63;5034660;28;20026;-60
2022/03/18 02:04:48;;;;;;;19.00;9.00;;;;;;;2.05;81.39;103849.41;5034596;28;20375;-60
2022/03/18 02:07:14;;;;;;;20.48;8.60;;;;;;;2.01;82.19;103847.38;5034572;28;20423;-60
2022/03/18 02:09:40;;;;;;;15.27;8.45;;;;;;;2.05;82.29;103844.22;5034674;28;20021;-60
2022/03/18 02:12:07;;;;;;;13.30;8.23;;;;;;;1.99;81.87;103848.97;5034748;28;20044;-60
2022/03/18 02:14:34;;;;;;;17.15;8.77;;;;;;;1.99;82.16;103859.28;5034179;28;20178;-60
2022/03/18 02:17:03;;;;;;;17.60;8.90;;;;;;;1.95;82.51;103857.28;5034707;28;20482;-60
2022/03/18 02:19:28;;;;;;;15.77;8.68;;;;;;;1.95;82.40;103865.03;5037963;28;20061;-59
2022/03/18 02:21:55;;;;;;;21.67;8.43;;;;;;;1.95;82.16;103876.25;5038082;28;20459;-60
2022/03/18 02:24:20;;;;;;;20.30;8.52;;;;;;;1.93;82.63;103871.75;5037610;28;20436;-59
2022/03/18 02:26:50;;;;;;;18.85;8.93;;;;;;;1.89;82.60;103868.09;5038173;28;20048;-60
2022/03/18 02:29:18;;;;;;;18.23;9.35;;;;;;;1.84;82.98;103869.44;5038230;28;20124;-60
2022/03/18 02:31:43;;;;;;;18.30;8.68;;;;;;;1.81;83.15;103869.22;5038165;28;20360;-62
2022/03/18 02:34:08;;;;;;;20.05;8.68;;;;;;;1.78;82.74;103862.94;5037782;28;20037;-60
2022/03/18 02:36:34;;;;;;;20.75;9.05;;;;;;;1.74;82.67;103861.81;5037877;28;20071;-60
2022/03/18 02:38:59;;;;;;;16.98;8.40;;;;;;;1.72;82.25;103858.25;5037603;28;20041;-60
2022/03/18 02:41:24;;;;;;;15.63;8.50;;;;;;;1.68;82.76;103863.97;5038224;28;20039;-60
2022/03/18 02:43:49;;;;;;;15.15;8.50;;;;;;;1.66;83.27;103876.78;5037440;28;20429;-60
2022/03/18 02:46:15;;;;;;;13.60;8.50;;;;;;;1.65;83.35;103885.31;5036385;28;20353;-60
2022/03/18 02:48:41;;;;;;;15.73;8.68;;;;;;;1.65;83.39;103884.41;5037620;28;20057;-60
2022/03/18 02:51:07;;;;;;;14.98;8.02;;;;;;;1.61;83.40;103883.28;5037182;28;20029;-60
2022/03/18 02:53:34;;;;;;;16.33;8.70;;;;;;;1.60;83.56;103878.91;5037965;28;20029;-60
2022/03/18 02:55:59;;;;;;;17.77;8.63;;;;;;;1.56;82.69;103882.03;5037771;28;20060;-60
2022/03/18 02:58:25;;;;;;;16.63;8.50;;;;;;;1.49;83.32;103877.25;5037264;28;20203;-59
2022/03/18 03:00:50;;;;;;;14.43;8.73;;;;;;;1.48;83.38;103888.34;5037490;28;20333;-61
2022/03/18 03:03:16;;;;;;;18.73;8.77;;;;;;;1.53;83.47;103899.91;5037311;28;20033;-60
2022/03/18 03:08:25;;;;;;;17.10;8.32;;;;;;;1.43;83.61;103900.00;5037291;28;20417;-60
2022/03/18 03:10:51;;;;;;;15.70;8.77;;;;;;;1.41;83.75;103904.16;5036609;28;20069;-60
2022/03/18 03:13:16;;;;;;;15.85;8.73;;;;;;;1.44;83.74;103906.97;5037232;28;20424;-60
2022/03/18 03:15:41;;;;;;;17.40;8.65;;;;;;;1.44;83.54;103914.72;5037059;28;20168;-60
2022/03/18 03:18:07;;;;;;;16.38;8.38;;;;;;;1.45;83.56;103913.94;5035980;28;20033;-60
2022/03/18 03:20:33;;;;;;;19.10;8.25;;;;;;;1.46;83.58;103918.31;5036946;28;20061;-60
2022/03/18 03:22:58;;;;;;;16.98;8.02;;;;;;;1.39;83.73;103910.88;5037018;28;20352;-60
2022/03/18 03:25:24;;;;;;;14.82;7.90;;;;;;;1.43;83.52;103909.44;5037045;28;20029;-60
2022/03/18 03:27:51;;;;;;;15.18;7.95;;;;;;;1.36;83.77;103905.53;5036926;28;20384;-59
2022/03/18 03:30:17;;;;;;;18.58;8.32;;;;;;;1.39;83.32;103916.94;5036807;28;20044;-60
2022/03/18 03:32:42;;;;;;;18.80;8.60;;;;;;;1.40;83.26;103935.91;5037075;28;20033;-60
2022/03/18 03:35:08;;;;;;;14.90;8.05;;;;;;;1.33;83.78;103924.25;5036905;28;20091;-60
2022/03/18 03:37:34;;;;;;;16.25;8.88;;;;;;;1.32;83.99;103924.16;5036891;28;20029;-60
2022/03/18 03:40:00;;;;;;;16.88;8.13;;;;;;;1.28;83.99;103919.53;5036972;28;20109;-60
2022/03/18 03:42:25;;;;;;;15.70;7.90;;;;;;;1.27;83.84;103918.63;5036740;28;20033;-60
2022/03/18 03:44:50;;;;;;;15.80;8.05;;;;;;;1.27;84.24;103922.91;5036504;28;20056;-60
2022/03/18 03:47:16;;;;;;;15.55;8.10;;;;;;;1.30;84.38;103930.88;5036684;28;20033;-60
2022/03/18 03:49:41;;;;;;;14.48;8.07;;;;;;;1.32;83.89;103939.63;5036295;28;20022;-60
2022/03/18 03:52:08;;;;;;;14.20;8.40;;;;;;;1.27;84.07;103934.13;5036631;28;20084;-59
2022/03/18 03:54:34;;;;;;;12.50;7.80;;;;;;;1.30;83.82;103943.78;5036522;28;20037;-60
2022/03/18 03:56:59;;;;;;;15.73;8.07;;;;;;;1.31;83.94;103943.00;5036600;28;20136;-60
2022/03/18 03:59:25;;;;;;;13.98;8.00;;;;;;;1.28;84.14;103935.91;5036390;28;20116;-60
2022/03/18 04:01:50;;;;;;;17.80;8.27;;;;;;;1.21;84.08;103927.63;5036109;28;20037;-60
2022/03/18 04:04:16;;;;;;;17.02;7.93;;;;;;;1.24;83.78;103939.03;5035708;28;20137;-60
2022/03/18 04:06:41;;;;;;;13.07;7.55;;;;;;;1.11;83.54;103956.06;5036279;28;20053;-61
2022/03/18 04:09:07;;;;;;;15.30;7.60;;;;;;;0.97;85.19;103955.03;5036387;28;20033;-60
2022/03/18 04:11:33;;;;;;;17.40;8.35;;;;;;;0.98;85.01;103967.16;5036262;28;20037;-62
2022/03/18 04:13:58;;;;;;;15.55;8.20;;;;;;;0.99;85.02;103956.97;5035919;28;20039;-60
2022/03/18 04:16:23;;;;;;;14.57;7.97;;;;;;;1.01;85.02;103960.56;5036297;28;20057;-60
2022/03/18 04:18:48;;;;;;;18.42;8.15;;;;;;;1.05;84.52;103962.56;5036157;28;20033;-60
2022/03/18 04:21:14;;;;;;;17.63;8.43;;;;;;;1.08;84.71;103971.31;5036319;28;20049;-60
2022/03/18 04:23:40;;;;;;;16.92;7.90;;;;;;;1.06;84.89;103973.78;5035839;28;20033;-60
2022/03/18 04:26:06;;;;;;;15.20;8.23;;;;;;;1.04;85.28;103967.59;5035851;28;20037;-60
2022/03/18 04:28:31;;;;;;;13.30;7.60;;;;;;;1.04;84.78;103981.41;5035729;28;20400;-61
2022/03/18 04:30:56;;;;;;;16.63;8.05;;;;;;;1.06;85.33;103984.09;5035864;28;20044;-60
2022/03/18 04:33:21;;;;;;;15.57;8.38;;;;;;;1.02;85.02;103982.97;5035563;28;20044;-60
2022/03/18 04:35:47;;;;;;;13.48;7.47;;;;;;;1.04;85.47;103985.66;5035614;28;20037;-60
2022/03/18 04:38:12;;;;;;;17.92;8.15;;;;;;;1.06;84.76;103989.25;5035454;28;20452;-60
2022/03/18 04:40:38;;;;;;;16.95;8.27;;;;;;;0.97;85.03;103997.19;5035032;28;20037;-60
2022/03/18 04:43:03;;;;;;;16.60;7.78;;;;;;;0.89;85.71;103993.13;5034956;28;20084;-60
2022/03/18 04:45:28;;;;;;;18.17;8.20;;;;;;;0.91;85.76;103996.72;5035544;28;20056;-60
2022/03/18 04:47:54;;;;;;;14.02;7.95;;;;;;;0.94;85.48;104001.22;5035231;28;20026;-60
2022/03/18 04:50:20;;;;;;;15.90;8.23;;;;;;;0.87;85.88;103988.63;5035639;28;20360;-60
2022/03/18 04:52:45;;;;;;;15.45;7.85;;;;;;;0.85;86.08;103990.22;5035674;28;20033;-59
2022/03/18 04:55:10;;;;;;;15.88;7.88;;;;;;;0.84;85.28;103991.91;5035466;28;20029;-60
2022/03/18 04:57:36;;;;;;;15.50;7.90;;;;;;;0.77;85.92;103983.56;5035599;28;20029;-60
2022/03/18 05:00:02;;;;;;;14.55;7.88;;;;;;;0.87;85.99;103996.34;5034009;28;20041;-60
2022/03/18 05:02:29;;;;;;;16.00;7.70;;;;;;;0.84;85.69;104006.47;5035602;28;21010;-60
2022/03/18 05:04:54;;;;;;;16.15;7.80;;;;;;;0.83;85.81;104008.13;5035337;28;20033;-60
2022/03/18 05:07:20;;;;;;;15.02;7.65;;;;;;;0.86;85.70;104010.06;5035100;28;20087;-60
2022/03/18 05:09:46;;;;;;;15.65;9.07;;;;;;;0.83;85.81;104018.44;5035219;28;20029;-60
2022/03/18 05:12:13;;;;;;;14.55;8.13;;;;;;;0.82;85.84;104014.06;5035251;28;20033;-60
2022/03/18 05:14:40;;;;;;;18.58;8.57;;;;;;;0.76;85.89;104016.16;5035290;28;20452;-60
2022/03/18 05:17:07;;;;;;;13.70;8.38;;;;;;;0.83;85.83;104020.13;5034898;28;20061;-60
2022/03/18 05:19:33;;;;;;;15.10;7.78;;;;;;;0.81;86.11;104030.31;5035237;28;20064;-60
2022/03/18 05:21:58;;;;;;;14.90;8.15;;;;;;;0.80;85.71;104032.78;5034820;28;20034;-60
2022/03/18 05:24:25;;;;;;;14.20;7.85;;;;;;;0.74;85.93;104022.88;5035637;28;20055;-60
2022/03/18 05:26:51;;;;;;;14.85;8.38;;;;;;;0.76;86.19;104036.78;5034880;28;20029;-61
2022/03/18 05:29:16;;;;;;;17.98;8.07;;;;;;;0.76;86.08;104033.31;5034925;28;20038;-60
2022/03/18 05:31:42;;;;;;;14.02;7.85;;;;;;;0.72;86.34;104029.59;5035211;28;20021;-60
2022/03/18 05:34:07;;;;;;;16.58;7.95;;;;;;;0.67;86.37;104034.41;5034795;28;20026;-60
2022/03/18 05:36:32;;;;;;;16.58;7.85;;;;;;;0.71;86.15;104040.69;5034859;28;20042;-60
2022/03/18 05:38:57;;;;;;;14.50;8.18;;;;;;;0.70;86.30;104050.09;5034783;28;20022;-60
2022/03/18 05:41:24;;;;;;;15.15;8.40;;;;;;;0.65;86.44;104053.09;5035022;28;20033;-60
2022/03/18 05:43:49;;;;;;;15.40;8.15;;;;;;;0.64;86.70;104041.91;5034959;28;20040;-60
2022/03/18 05:46:14;;;;;;;17.02;8.68;;;;;;;0.62;86.93;104043.44;5035263;28;20026;-60
2022/03/18 05:48:39;;;;;;;16.17;8.98;;;;;;;0.67;86.77;104044.72;5034425;28;20511;-60
2022/03/18 05:51:05;;;;;;;15.27;8.10;;;;;;;0.61;87.14;104049.38;5034585;28;20036;-60
2022/03/18 05:53:30;;;;;;;18.23;9.30;;;;;;;0.49;87.29;104030.41;5038762;28;20041;-60
2022/03/18 05:58:41;;;;;;;16.90;9.10;;;;;;;0.73;87.36;104033.06;5037799;28;20052;-59
2022/03/18 06:01:07;;;;;;;22.67;9.82;;;;;;;0.77;87.23;104035.13;5038493;28;20120;-60
2022/03/18 06:03:33;;;;;;;18.15;9.68;;;;;;;0.76;86.75;104034.22;5038790;28;20129;-60
2022/03/18 06:05:58;;;;;;;21.63;9.50;;;;;;;0.79;87.07;104051.59;5038392;28;20053;-60
2022/03/18 06:13:51;;;;;;;18.20;9.25;;;;;;;0.79;87.59;104054.19;5038769;28;20372;-60
2022/03/18 06:16:16;;;;;;;22.50;9.32;;;;;;;0.87;87.19;104066.88;5038274;28;20029;-60
2022/03/18 06:18:42;;;;;;;19.60;9.80;;;;;;;0.87;87.61;104082.34;5070243;28;20037;-59
2022/03/18 06:21:08;;;;;;;19.90;9.82;;;;;;;0.94;87.77;104070.84;5037923;28;20107;-60
2022/03/18 06:23:34;;;;;;;18.23;10.07;;;;;;;0.99;87.48;104078.16;5038103;28;20033;-60
2022/03/18 06:26:01;;;;;;;22.38;9.60;;;;;;;1.24;87.54;104092.91;5038050;28;20033;-60
2022/03/18 06:28:27;;;;;;;20.17;9.40;;;;;;;1.84;86.12;104093.16;5038089;28;20052;-60
2022/03/18 06:30:52;;;;;;;17.95;8.85;;;;;;;2.55;83.26;104080.31;5038222;28;20034;-60
2022/03/18 06:33:17;;;;;;;18.23;8.43;;;;;;;3.19;80.96;104086.50;5038215;28;20448;-59
2022/03/18 06:35:42;;;;;;;18.30;8.73;;;;;;;3.47;79.63;104062.59;5038094;28;20119;-59
2022/03/18 06:38:08;;;;;;;17.60;9.13;;;;;;;3.91;78.23;104085.38;5037614;28;20114;-58
2022/03/18 06:40:34;;;;;;;17.75;8.77;;;;;;;4.07;77.24;104077.81;5037820;28;20041;-61
2022/03/18 06:42:59;;;;;;;16.40;8.90;;;;;;;4.31;76.19;104080.19;5037594;28;20104;-61
2022/03/18 06:45:25;;;;;;;16.23;9.05;;;;;;;4.48;75.86;104084.75;5037643;28;20158;-61
2022/03/18 06:47:50;;;;;;;19.88;9.15;;;;;;;4.58;75.25;104084.53;5043013;28;20044;-61
2022/03/18 06:50:15;;;;;;;18.92;8.88;;;;;;;4.72;75.11;104081.09;5037759;28;20446;-61
2022/03/18 06:52:41;;;;;;;19.15;9.02;;;;;;;4.84;75.17;104083.56;5037430;28;20041;-61
2022/03/18 06:55:07;;;;;;;19.38;9.95;;;;;;;5.03;75.32;104107.22;5037189;28;20041;-61
2022/03/18 06:57:32;;;;;;;15.00;9.93;;;;;;;5.06;74.55;104101.34;5042638;28;20041;-61
2022/03/18 06:59:57;;;;;;;17.42;9.70;;;;;;;5.10;74.67;104085.16;5036828;28;20183;-61
2022/03/18 07:02:22;;;;;;;19.58;10.57;;;;;;;5.27;74.02;104099.16;5036994;28;20033;-61
2022/03/18 07:04:48;;;;;;;20.67;10.32;;;;;;;5.33;74.37;104104.72;5037489;28;20088;-60
2022/03/18 07:07:13;;;;;;;18.33;10.55;;;;;;;5.31;74.19;104095.94;5037376;28;20080;-62
2022/03/18 07:09:38;;;;;;;19.75;9.98;;;;;;;5.46;74.11;104104.66;5036845;28;20048;-62
2022/03/18 07:12:04;;;;;;;17.60;10.30;;;;;;;5.54;74.61;104099.09;5037614;28;20067;-60
2022/03/18 07:14:29;;;;;;;15.07;9.00;;;;;;;5.82;75.50;104114.63;5037092;28;20025;-60
2022/03/18 07:19:39;;;;;;;17.23;8.15;;;;;;;6.26;75.06;104111.09;5037095;28;20068;-61
2022/03/18 07:22:05;;;;;;;13.80;7.72;;;;;;;6.45;73.95;104116.53;5037095;28;20029;-61
2022/03/18 07:24:31;;;;;;;19.60;9.18;;;;;;;6.56;73.52;104112.84;5037381;28;20433;-61
2022/03/18 07:26:58;;;;;;;20.92;9.25;;;;;;;6.64;73.26;104111.53;5036935;28;20037;-61
2022/03/18 07:29:23;;;;;;;18.67;9.10;;;;;;;6.78;73.65;104111.41;5036852;28;20040;-61
2022/03/18 07:31:51;;;;;;;13.90;9.18;;;;;;;6.95;73.26;104110.59;5036931;28;20026;-61
2022/03/18 07:34:16;;;;;;;17.25;8.82;;;;;;;7.07;72.30;104111.28;5036738;28;20033;-61
2022/03/18 07:36:41;;;;;;;17.13;8.35;;;;;;;7.23;71.88;104118.19;5036452;28;20443;-61
2022/03/18 07:39:06;;;;;;;16.83;8.18;;;;;;;7.42;71.47;104120.94;5036592;28;20029;-61
2022/03/18 07:41:32;;;;;;;20.98;8.75;;;;;;;7.57;71.71;104124.34;5035648;28;20338;-61
2022/03/18 07:43:57;;;;;;;15.95;8.05;;;;;;;7.80;70.76;104132.41;5036785;28;20025;-61
2022/03/18 07:46:22;;;;;;;16.38;7.70;;;;;;;7.84;69.22;104131.75;5036921;28;20421;-61
2022/03/18 07:48:47;;;;;;;18.67;7.68;;;;;;;8.00;68.60;104140.44;5036394;28;20044;-61
2022/03/18 07:51:13;;;;;;;16.52;7.30;;;;;;;8.15;68.17;104148.13;5036824;28;20309;-61
2022/03/18 07:53:38;;;;;;;15.60;7.03;;;;;;;8.23;67.98;104154.63;5036230;28;20025;-61
2022/03/18 07:56:04;;;;;;;16.67;6.93;;;;;;;8.42;67.68;104152.94;5036339;28;20025;-60
2022/03/18 07:58:30;;;;;;;15.93;7.05;;;;;;;8.61;67.55;104156.53;5036362;28;20420;-61
2022/03/18 08:01:00;;;;;;;17.65;7.28;;;;;;;8.74;67.37;104155.38;5032081;28;20060;-64
2022/03/18 08:03:25;;;;;;;18.17;7.05;;;;;;;9.02;66.05;104147.09;5035143;28;20037;-62
2022/03/18 08:05:52;;;;;;;17.25;7.05;;;;;;;9.10;65.83;104157.91;5035581;28;20038;-64
2022/03/18 08:08:18;;;;;;;17.27;7.38;;;;;;;9.06;65.37;104162.09;5036051;28;20064;-64
2022/03/18 08:10:51;;;;;;;19.38;7.20;;;;;;;9.23;65.46;104163.75;5035898;28;20053;-65
2022/03/18 08:13:17;;;;;;;18.35;6.95;;;;;;;9.46;63.78;104163.91;5033578;28;20060;-61
2022/03/18 08:15:44;;;;;;;14.82;6.45;;;;;;;9.75;63.16;104161.72;5034903;28;20029;-61
2022/03/18 08:18:10;;;;;;;21.92;6.38;;;;;;;10.19;61.83;104167.09;5035413;28;20021;-62
2022/03/18 08:20:40;;;;;;;18.63;6.30;;;;;;;10.76;59.75;104158.94;5035879;28;20069;-62
2022/03/18 08:23:06;;;;;;;14.10;5.90;;;;;;;11.37;57.26;104171.75;5035692;28;20030;-61
2022/03/18 08:25:31;;;;;;;14.30;6.22;;;;;;;11.40;56.99;104161.38;5035727;28;20087;-61
2022/03/18 08:27:56;;;;;;;13.50;6.32;;;;;;;11.77;55.56;104173.22;5034769;28;20044;-61
2022/03/18 08:30:22;;;;;;;18.25;6.47;;;;;;;12.05;54.87;104157.56;5035651;28;20029;-61
2022/03/18 08:32:47;;;;;;;17.05;6.18;;;;;;;12.35;53.42;104165.53;5034102;28;20486;-61
2022/03/18 08:35:12;;;;;;;14.43;5.25;;;;;;;12.55;51.90;104169.69;5035796;28;20033;-61
2022/03/18 08:37:56;;;;;;;14.27;5.57;;;;;;;12.57;52.15;104177.63;5034965;28;20048;-61
2022/03/18 08:40:32;;;;;;;12.43;5.28;;;;;;;12.57;51.92;104182.88;5035350;28;20052;-61
2022/03/18 08:42:59;;;;;;;12.57;5.50;;;;;;;12.44;51.24;104170.22;5035386;28;20041;-62
2022/03/18 08:45:25;;;;;;;13.82;5.95;;;;;;;12.49;50.70;104187.88;5035261;28;20155;-61
2022/03/18 08:47:50;;;;;;;18.35;5.75;;;;;;;12.60;51.24;104187.34;5035055;28;20036;-61
2022/03/18 08:50:17;;;;;;;13.10;6.38;;;;;;;12.57;51.33;104192.50;5035544;28;20037;-64
2022/03/18 08:52:43;;;;;;;13.32;5.82;;;;;;;12.36;51.49;104192.69;5034692;28;20048;-61
2022/03/18 08:55:09;;;;;;;12.38;5.05;;;;;;;12.02;51.60;104203.81;5035170;28;20034;-61
2022/03/18 08:57:36;;;;;;;9.98;5.35;;;;;;;11.86;51.46;104207.63;5034767;28;20035;-62
2022/03/18 09:00:05;;;;;;;11.38;4.60;;;;;;;11.51;52.72;104204.59;5034916;28;20805;-61
2022/03/18 09:02:30;;;;;;;12.32;4.30;;;;;;;11.46;52.68;104218.38;5040079;28;20092;-61
2022/03/18 09:04:56;;;;;;;13.50;4.38;;;;;;;11.58;53.11;104217.94;5034915;28;20399;-61
2022/03/18 09:07:21;;;;;;;9.57;4.38;;;;;;;11.57;53.45;104219.69;5034280;28;20041;-61
2022/03/18 09:09:46;;;;;;;9.93;3.72;;;;;;;11.68;51.57;104228.81;5035125;28;20033;-61
2022/03/18 09:12:12;;;;;;;8.55;4.03;;;;;;;11.83;52.66;104223.25;5034580;28;20044;-62
2022/03/18 09:14:37;;;;;;;8.07;4.28;;;;;;;11.98;51.85;104220.28;5034697;28;20474;-61
2022/03/18 09:17:02;;;;;;;8.02;3.58;;;;;;;12.08;49.61;104225.03;5034971;28;20151;-61
2022/03/18 09:19:27;;;;;;;8.40;3.95;;;;;;;12.00;49.52;104221.22;5034673;28;20361;-61
2022/03/18 09:21:54;;;;;;;8.52;3.63;;;;;;;11.95;49.56;104223.69;5034657;28;20033;-61
2022/03/18 09:24:19;;;;;;;8.38;3.90;;;;;;;12.05;49.67;104230.16;5035079;28;20064;-61
2022/03/18 09:26:44;;;;;;;9.18;4.05;;;;;;;12.16;50.18;104234.03;5034769;28;20056;-61
2022/03/18 09:29:11;;;;;;;9.60;4.35;;;;;;;12.30;51.22;104235.41;5032689;28;20042;-61
2022/03/18 09:31:37;;;;;;;12.10;4.10;;;;;;;12.25;50.44;104226.50;5034530;28;20040;-61
2022/03/18 09:34:03;;;;;;;10.43;4.07;;;;;;;12.31;50.39;104233.66;5034644;28;20029;-61
2022/03/18 09:36:28;;;;;;;7.88;4.05;;;;;;;12.30;50.18;104243.28;5034686;28;20445;-61
2022/03/18 09:38:54;;;;;;;7.07;3.40;;;;;;;12.20;49.01;104238.56;5034606;28;20425;-62
2022/03/18 09:41:19;;;;;;;9.80;3.78;;;;;;;12.12;49.59;104242.69;5034478;28;20026;-61
2022/03/18 09:43:45;;;;;;;9.75;4.18;;;;;;;12.23;48.94;104249.19;5016639;28;20049;-62
2022/03/18 09:46:13;;;;;;;9.07;4.20;;;;;;;12.19;49.21;104242.03;5034476;28;20041;-62
2022/03/18 09:48:39;;;;;;;9.43;3.80;;;;;;;12.19;48.27;104242.91;5034358;28;20352;-61
2022/03/18 09:51:05;;;;;;;10.23;3.72;;;;;;;12.17;48.46;104241.97;5034399;28;20033;-62
2022/03/18 09:53:34;;;;;;;8.93;3.67;;;;;;;12.43;47.74;104239.34;5034421;28;20048;-61
2022/03/18 09:56:00;;;;;;;8.75;4.00;;;;;;;12.74;48.17;104241.22;5034426;28;20579;-63
2022/03/18 09:58:25;;;;;;;7.82;4.00;;;;;;;12.84;47.57;104245.91;5034168;28;20041;-62
2022/03/18 10:00:50;;;;;;;8.43;3.33;;;;;;;12.98;47.65;104249.00;5034455;28;20037;-62
2022/03/18 10:03:17;;;;;;;8.82;3.53;;;;;;;13.16;46.44;104244.34;5034467;28;20037;-61
2022/03/18 10:05:59;;;;;;;6.63;3.20;;;;;;;13.07;46.19;104252.81;5034187;28;20120;-61
2022/03/18 10:08:25;;;;;;;7.50;3.53;;;;;;;13.27;44.90;104245.56;5034374;28;20112;-62
2022/03/18 10:10:50;;;;;;;7.88;3.05;;;;;;;13.35;45.17;104251.03;5033708;28;20449;-61
2022/03/18 10:13:16;;;;;;;6.53;2.83;;;;;;;13.40;44.56;104249.44;5034589;28;20049;-62
2022/03/18 10:15:43;;;;;;;7.45;2.97;;;;;;;13.32;44.81;104262.38;5034303;28;20033;-61
2022/03/18 10:18:14;;;;;;;5.53;2.47;;;;;;;13.30;45.12;104264.06;5066231;28;20049;-63
2022/03/18 10:20:42;;;;;;;9.43;3.05;;;;;;;13.32;45.10;104259.75;5034367;28;20096;-61
2022/03/18 10:23:16;;;;;;;7.22;3.13;;;;;;;13.36;45.22;104264.22;5034024;28;20037;-62
2022/03/18 10:25:50;;;;;;;6.95;2.85;;;;;;;13.34;45.24;104270.28;5034283;28;20372;-62
2022/03/18 10:28:18;;;;;;;7.40;3.10;;;;;;;13.43;45.37;104253.06;5034025;28;20025;-62
2022/03/18 10:30:43;;;;;;;8.63;2.92;;;;;;;13.67;45.45;104257.25;5033950;28;20136;-63
2022/03/18 10:33:09;;;;;;;9.52;3.20;;;;;;;13.72;44.48;104248.59;5034122;28;20088;-62
2022/03/18 10:38:35;;;;;;;4.35;2.20;;;;;;;13.84;44.84;104259.50;5035659;28;20092;-62
2022/03/18 10:41:08;;;;;;;8.23;2.72;;;;;;;13.59;43.95;104257.91;5037485;28;20088;-62
2022/03/18 10:43:58;;;;;;;6.10;2.90;;;;;;;13.57;45.71;104256.06;5037662;28;20108;-61
2022/03/18 10:46:23;;;;;;;8.18;3.17;;;;;;;13.71;44.11;104257.34;5036737;28;20075;-62
2022/03/18 10:49:03;;;;;;;7.10;2.90;;;;;;;13.67;44.64;104263.41;5069872;28;20124;-62
2022/03/18 10:51:29;;;;;;;6.88;2.67;;;;;;;13.75;43.19;104258.34;5037294;28;20356;-62
2022/03/18 10:53:56;;;;;;;7.88;2.75;;;;;;;13.88;43.09;104263.09;5037638;28;20030;-62
2022/03/18 10:56:21;;;;;;;7.57;2.42;;;;;;;13.76;43.02;104246.97;5037455;28;20049;-62
2022/03/18 10:58:46;;;;;;;8.15;2.67;;;;;;;13.81;43.14;104261.16;5036862;28;20338;-62
2022/03/18 11:01:14;;;;;;;5.80;2.50;;;;;;;13.91;42.81;104263.19;5037580;28;20053;-62
2022/03/18 11:03:40;;;;;;;5.90;2.65;;;;;;;13.96;43.14;104245.78;5037114;28;20037;-64
2022/03/18 11:06:06;;;;;;;5.55;2.40;;;;;;;14.06;42.10;104255.69;5037240;28;20103;-62
2022/03/18 11:08:37;;;;;;;9.80;2.90;;;;;;;13.91;42.55;104250.91;5037283;28;20029;-62
2022/03/18 11:11:07;;;;;;;7.63;3.00;;;;;;;14.01;42.00;104252.06;5036319;28;20068;-62
2022/03/18 11:13:49;;;;;;;7.43;2.85;;;;;;;14.10;42.95;104252.28;5036994;28;20033;-61
2022/03/18 11:16:35;;;;;;;8.25;3.03;;;;;;;14.10;42.96;104247.03;5036840;28;20061;-61
2022/03/18 11:19:06;;;;;;;7.68;3.35;;;;;;;13.93;42.10;104249.22;5036202;28;20053;-61
2022/03/18 11:21:41;;;;;;;;;;;;;;;14.06;43.43;104252.16;5037089;28;20050;-62
2022/03/18 11:24:11;;;;;;;6.50;2.50;;;;;;;13.96;42.54;104247.50;5036748;28;19921;-62
2022/03/18 11:26:38;;;;;;;8.52;2.88;;;;;;;14.03;42.83;104244.16;5036752;28;20100;-63
2022/03/18 11:29:09;;;;;;;5.43;2.42;;;;;;;14.12;42.72;104245.31;5036457;28;20057;-61
2022/03/18 11:31:35;;;;;;;5.60;2.67;;;;;;;14.19;42.12;104251.66;5036402;28;20108;-62
2022/03/18 11:34:15;;;;;;;9.73;3.20;;;;;;;14.25;43.74;104250.06;5036887;28;20033;-62
2022/03/18 11:36:46;;;;;;;6.22;2.80;;;;;;;14.26;42.48;104243.94;5036731;28;20054;-62
2022/03/18 11:39:19;;;;;;;6.70;2.85;;;;;;;14.21;43.01;104253.44;5036491;28;20057;-62
2022/03/18 11:41:53;;;;;;;10.55;3.38;;;;;;;14.09;42.45;104239.06;5068926;28;20403;-62
2022/03/18 11:44:39;;;;;;;7.65;3.05;;;;;;;14.10;44.23;104240.88;5036290;28;20048;-63